ADDS METAR Data INFO
IDs: Format: Raw Decoded Include TAF

Data at: 0255 UTC 21 Jun 2018

METAR for:K6B9 (Skaneateles Arpt, NY, US)
Text:K6B9 210255Z AUTO 00000KT 10SM CLR 13/12 A2984 RMK AO2
Temperature: 13.0°C ( 55°F)
Dewpoint: 12.0°C ( 54°F) [RH = 94%]
Pressure (altimeter):29.84 inches Hg (1010.6 mb)
Winds:calm
Visibility:10 or more sm (16+ km)
Ceiling:at least 12,000 feet AGL
Clouds:sky clear below 12,000 feet AGL
QC Flag:automated observation with no human augmentation
Text:K6B9 210235Z AUTO 00000KT 10SM CLR 14/13 A2984 RMK AO2
Temperature: 14.0°C ( 57°F)
Dewpoint: 13.0°C ( 55°F) [RH = 94%]
Pressure (altimeter):29.84 inches Hg (1010.6 mb)
Winds:calm
Visibility:10 or more sm (16+ km)
Ceiling:at least 12,000 feet AGL
Clouds:sky clear below 12,000 feet AGL
QC Flag:automated observation with no human augmentation
Text:K6B9 210215Z AUTO 00000KT 10SM CLR 14/13 A2984 RMK AO2
Temperature: 14.0°C ( 57°F)
Dewpoint: 13.0°C ( 55°F) [RH = 94%]
Pressure (altimeter):29.84 inches Hg (1010.6 mb)
Winds:calm
Visibility:10 or more sm (16+ km)
Ceiling:at least 12,000 feet AGL
Clouds:sky clear below 12,000 feet AGL
QC Flag:automated observation with no human augmentation
Text:K6B9 210155Z AUTO 00000KT 14/13 A2984 RMK AO2
Temperature: 14.0°C ( 57°F)
Dewpoint: 13.0°C ( 55°F) [RH = 94%]
Pressure (altimeter):29.84 inches Hg (1010.6 mb)
Winds:calm
QC Flag:automated observation with no human augmentation
Text:K6B9 210135Z AUTO 00000KT 10SM CLR 15/13 A2983 RMK AO2
Temperature: 15.0°C ( 59°F)
Dewpoint: 13.0°C ( 55°F) [RH = 88%]
Pressure (altimeter):29.83 inches Hg (1010.2 mb)
Winds:calm
Visibility:10 or more sm (16+ km)
Ceiling:at least 12,000 feet AGL
Clouds:sky clear below 12,000 feet AGL
QC Flag:automated observation with no human augmentation
Text:K6B9 210115Z AUTO 00000KT 10SM CLR 16/13 A2983 RMK AO2
Temperature: 16.0°C ( 61°F)
Dewpoint: 13.0°C ( 55°F) [RH = 82%]
Pressure (altimeter):29.83 inches Hg (1010.2 mb)
Winds:calm
Visibility:10 or more sm (16+ km)
Ceiling:at least 12,000 feet AGL
Clouds:sky clear below 12,000 feet AGL
QC Flag:automated observation with no human augmentation
Text:K6B9 210055Z AUTO 00000KT 10SM CLR 17/13 A2983 RMK AO2
Temperature: 17.0°C ( 63°F)
Dewpoint: 13.0°C ( 55°F) [RH = 77%]
Pressure (altimeter):29.83 inches Hg (1010.2 mb)
Winds:calm
Visibility:10 or more sm (16+ km)
Ceiling:at least 12,000 feet AGL
Clouds:sky clear below 12,000 feet AGL
QC Flag:automated observation with no human augmentation
Text:K6B9 210035Z AUTO 00000KT 10SM CLR 18/13 A2983 RMK AO2
Temperature: 18.0°C ( 64°F)
Dewpoint: 13.0°C ( 55°F) [RH = 73%]
Pressure (altimeter):29.83 inches Hg (1010.2 mb)
Winds:calm
Visibility:10 or more sm (16+ km)
Ceiling:at least 12,000 feet AGL
Clouds:sky clear below 12,000 feet AGL
QC Flag:automated observation with no human augmentation
Text:K6B9 210015Z AUTO 00000KT 10SM CLR 19/13 A2983 RMK AO2
Temperature: 19.0°C ( 66°F)
Dewpoint: 13.0°C ( 55°F) [RH = 68%]
Pressure (altimeter):29.83 inches Hg (1010.2 mb)
Winds:calm
Visibility:10 or more sm (16+ km)
Ceiling:at least 12,000 feet AGL
Clouds:sky clear below 12,000 feet AGL
QC Flag:automated observation with no human augmentation
Text:K6B9 202355Z AUTO 00000KT 10SM CLR 21/11 A2983 RMK AO2
Temperature: 21.0°C ( 70°F)
Dewpoint: 11.0°C ( 52°F) [RH = 53%]
Pressure (altimeter):29.83 inches Hg (1010.2 mb)
Winds:calm
Visibility:10 or more sm (16+ km)
Ceiling:at least 12,000 feet AGL
Clouds:sky clear below 12,000 feet AGL
QC Flag:automated observation with no human augmentation
Text:K6B9 202335Z AUTO 00000KT 10SM CLR 22/11 A2984 RMK AO2
Temperature: 22.0°C ( 72°F)
Dewpoint: 11.0°C ( 52°F) [RH = 50%]
Pressure (altimeter):29.84 inches Hg (1010.6 mb)
Winds:calm
Visibility:10 or more sm (16+ km)
Ceiling:at least 12,000 feet AGL
Clouds:sky clear below 12,000 feet AGL
QC Flag:automated observation with no human augmentation
Text:K6B9 202315Z AUTO 00000KT 10SM CLR 22/11 A2983 RMK AO2
Temperature: 22.0°C ( 72°F)
Dewpoint: 11.0°C ( 52°F) [RH = 50%]
Pressure (altimeter):29.83 inches Hg (1010.2 mb)
Winds:calm
Visibility:10 or more sm (16+ km)
Ceiling:at least 12,000 feet AGL
Clouds:sky clear below 12,000 feet AGL
QC Flag:automated observation with no human augmentation
Text:K6B9 202255Z AUTO 00000KT 10SM CLR 22/11 A2983 RMK AO2
Temperature: 22.0°C ( 72°F)
Dewpoint: 11.0°C ( 52°F) [RH = 50%]
Pressure (altimeter):29.83 inches Hg (1010.2 mb)
Winds:calm
Visibility:10 or more sm (16+ km)
Ceiling:at least 12,000 feet AGL
Clouds:sky clear below 12,000 feet AGL
QC Flag:automated observation with no human augmentation
Text:K6B9 202235Z AUTO 00000KT 10SM CLR 22/12 A2983 RMK AO2
Temperature: 22.0°C ( 72°F)
Dewpoint: 12.0°C ( 54°F) [RH = 53%]
Pressure (altimeter):29.83 inches Hg (1010.2 mb)
Winds:calm
Visibility:10 or more sm (16+ km)
Ceiling:at least 12,000 feet AGL
Clouds:sky clear below 12,000 feet AGL
QC Flag:automated observation with no human augmentation
Text:K6B9 202215Z AUTO 00000KT 10SM CLR 23/12 A2984 RMK AO2
Temperature: 23.0°C ( 73°F)
Dewpoint: 12.0°C ( 54°F) [RH = 50%]
Pressure (altimeter):29.84 inches Hg (1010.6 mb)
Winds:calm
Visibility:10 or more sm (16+ km)
Ceiling:at least 12,000 feet AGL
Clouds:sky clear below 12,000 feet AGL
QC Flag:automated observation with no human augmentation
Text:K6B9 202155Z AUTO 00000KT 10SM CLR 23/11 A2984 RMK AO2
Temperature: 23.0°C ( 73°F)
Dewpoint: 11.0°C ( 52°F) [RH = 47%]
Pressure (altimeter):29.84 inches Hg (1010.6 mb)
Winds:calm
Visibility:10 or more sm (16+ km)
Ceiling:at least 12,000 feet AGL
Clouds:sky clear below 12,000 feet AGL
QC Flag:automated observation with no human augmentation
Text:K6B9 202135Z AUTO 26005KT 10SM CLR 22/12 A2984 RMK AO2
Temperature: 22.0°C ( 72°F)
Dewpoint: 12.0°C ( 54°F) [RH = 53%]
Pressure (altimeter):29.84 inches Hg (1010.6 mb)
Winds:from the W (260 degrees) at 6 MPH (5 knots; 2.6 m/s)
Visibility:10 or more sm (16+ km)
Ceiling:at least 12,000 feet AGL
Clouds:sky clear below 12,000 feet AGL
QC Flag:automated observation with no human augmentation
Text:K6B9 202115Z AUTO 00000KT 10SM CLR 22/12 A2984 RMK AO2
Temperature: 22.0°C ( 72°F)
Dewpoint: 12.0°C ( 54°F) [RH = 53%]
Pressure (altimeter):29.84 inches Hg (1010.6 mb)
Winds:calm
Visibility:10 or more sm (16+ km)
Ceiling:at least 12,000 feet AGL
Clouds:sky clear below 12,000 feet AGL
QC Flag:automated observation with no human augmentation
Text:K6B9 202055Z AUTO 23003KT 10SM CLR 22/11 A2985 RMK AO2
Temperature: 22.0°C ( 72°F)
Dewpoint: 11.0°C ( 52°F) [RH = 50%]
Pressure (altimeter):29.85 inches Hg (1010.9 mb)
Winds:from the SW (230 degrees) at 3 MPH (3 knots; 1.5 m/s)
Visibility:10 or more sm (16+ km)
Ceiling:at least 12,000 feet AGL
Clouds:sky clear below 12,000 feet AGL
QC Flag:automated observation with no human augmentation
Text:K6B9 202035Z AUTO 26005KT 10SM CLR 23/12 A2985 RMK AO2
Temperature: 23.0°C ( 73°F)
Dewpoint: 12.0°C ( 54°F) [RH = 50%]
Pressure (altimeter):29.85 inches Hg (1010.9 mb)
Winds:from the W (260 degrees) at 6 MPH (5 knots; 2.6 m/s)
Visibility:10 or more sm (16+ km)
Ceiling:at least 12,000 feet AGL
Clouds:sky clear below 12,000 feet AGL
QC Flag:automated observation with no human augmentation
Text:K6B9 202015Z AUTO 00000KT 10SM CLR 22/12 A2986 RMK AO2
Temperature: 22.0°C ( 72°F)
Dewpoint: 12.0°C ( 54°F) [RH = 53%]
Pressure (altimeter):29.86 inches Hg (1011.3 mb)
Winds:calm
Visibility:10 or more sm (16+ km)
Ceiling:at least 12,000 feet AGL
Clouds:sky clear below 12,000 feet AGL
QC Flag:automated observation with no human augmentation
Text:K6B9 201955Z AUTO 00000KT 10SM CLR 23/13 A2986 RMK AO2
Temperature: 23.0°C ( 73°F)
Dewpoint: 13.0°C ( 55°F) [RH = 53%]
Pressure (altimeter):29.86 inches Hg (1011.3 mb)
Winds:calm
Visibility:10 or more sm (16+ km)
Ceiling:at least 12,000 feet AGL
Clouds:sky clear below 12,000 feet AGL
QC Flag:automated observation with no human augmentation
Text:K6B9 201935Z AUTO VRB04KT 10SM CLR 22/13 A2987 RMK AO2
Temperature: 22.0°C ( 72°F)
Dewpoint: 13.0°C ( 55°F) [RH = 57%]
Pressure (altimeter):29.87 inches Hg (1011.6 mb)
Winds:variable direction winds at 5 MPH (4 knots; 2.1 m/s)
Visibility:10 or more sm (16+ km)
Ceiling:at least 12,000 feet AGL
Clouds:sky clear below 12,000 feet AGL
QC Flag:automated observation with no human augmentation
Text:K6B9 201915Z AUTO 27004KT 10SM CLR 22/13 A2988 RMK AO2
Temperature: 22.0°C ( 72°F)
Dewpoint: 13.0°C ( 55°F) [RH = 57%]
Pressure (altimeter):29.88 inches Hg (1011.9 mb)
Winds:from the W (270 degrees) at 5 MPH (4 knots; 2.1 m/s)
Visibility:10 or more sm (16+ km)
Ceiling:at least 12,000 feet AGL
Clouds:sky clear below 12,000 feet AGL
QC Flag:automated observation with no human augmentation
Text:K6B9 201855Z AUTO 00000KT 10SM CLR 21/13 A2988 RMK AO2
Temperature: 21.0°C ( 70°F)
Dewpoint: 13.0°C ( 55°F) [RH = 60%]
Pressure (altimeter):29.88 inches Hg (1011.9 mb)
Winds:calm
Visibility:10 or more sm (16+ km)
Ceiling:at least 12,000 feet AGL
Clouds:sky clear below 12,000 feet AGL
QC Flag:automated observation with no human augmentation
Text:K6B9 201835Z AUTO 27003KT 10SM CLR 21/13 A2987 RMK AO2
Temperature: 21.0°C ( 70°F)
Dewpoint: 13.0°C ( 55°F) [RH = 60%]
Pressure (altimeter):29.87 inches Hg (1011.6 mb)
Winds:from the W (270 degrees) at 3 MPH (3 knots; 1.5 m/s)
Visibility:10 or more sm (16+ km)
Ceiling:at least 12,000 feet AGL
Clouds:sky clear below 12,000 feet AGL
QC Flag:automated observation with no human augmentation
Text:K6B9 201815Z AUTO VRB04KT 10SM CLR 21/13 A2988 RMK AO2
Temperature: 21.0°C ( 70°F)
Dewpoint: 13.0°C ( 55°F) [RH = 60%]
Pressure (altimeter):29.88 inches Hg (1011.9 mb)
Winds:variable direction winds at 5 MPH (4 knots; 2.1 m/s)
Visibility:10 or more sm (16+ km)
Ceiling:at least 12,000 feet AGL
Clouds:sky clear below 12,000 feet AGL
QC Flag:automated observation with no human augmentation
Text:K6B9 201755Z AUTO 03003KT 10SM CLR 20/14 A2988 RMK AO2
Temperature: 20.0°C ( 68°F)
Dewpoint: 14.0°C ( 57°F) [RH = 68%]
Pressure (altimeter):29.88 inches Hg (1011.9 mb)
Winds:from the NNE (30 degrees) at 3 MPH (3 knots; 1.5 m/s)
Visibility:10 or more sm (16+ km)
Ceiling:at least 12,000 feet AGL
Clouds:sky clear below 12,000 feet AGL
QC Flag:automated observation with no human augmentation
Text:K6B9 201735Z AUTO 00000KT 10SM CLR 20/14 A2988 RMK AO2
Temperature: 20.0°C ( 68°F)
Dewpoint: 14.0°C ( 57°F) [RH = 68%]
Pressure (altimeter):29.88 inches Hg (1011.9 mb)
Winds:calm
Visibility:10 or more sm (16+ km)
Ceiling:at least 12,000 feet AGL
Clouds:sky clear below 12,000 feet AGL
QC Flag:automated observation with no human augmentation
Text:K6B9 201715Z AUTO 00000KT 10SM CLR 19/14 A2989 RMK AO2
Temperature: 19.0°C ( 66°F)
Dewpoint: 14.0°C ( 57°F) [RH = 73%]
Pressure (altimeter):29.89 inches Hg (1012.3 mb)
Winds:calm
Visibility:10 or more sm (16+ km)
Ceiling:at least 12,000 feet AGL
Clouds:sky clear below 12,000 feet AGL
QC Flag:automated observation with no human augmentation
Text:K6B9 201655Z AUTO VRB06KT 10SM -RA FEW070 FEW080 20/13 A2990 RMK AO2
Temperature: 20.0°C ( 68°F)
Dewpoint: 13.0°C ( 55°F) [RH = 64%]
Pressure (altimeter):29.90 inches Hg (1012.6 mb)
Winds:variable direction winds at 7 MPH (6 knots; 3.1 m/s)
Visibility:10 or more sm (16+ km)
Ceiling:at least 12,000 feet AGL
Clouds: few clouds at 7000 feet AGL, few clouds at 8000 feet AGL
Weather:-RA (light rain)
QC Flag:automated observation with no human augmentation
Text:K6B9 201635Z AUTO 00000KT 10SM CLR 20/12 A2989 RMK AO2
Temperature: 20.0°C ( 68°F)
Dewpoint: 12.0°C ( 54°F) [RH = 60%]
Pressure (altimeter):29.89 inches Hg (1012.3 mb)
Winds:calm
Visibility:10 or more sm (16+ km)
Ceiling:at least 12,000 feet AGL
Clouds:sky clear below 12,000 feet AGL
QC Flag:automated observation with no human augmentation
Text:K6B9 201615Z AUTO 00000KT 10SM CLR 20/12 A2991 RMK AO2
Temperature: 20.0°C ( 68°F)
Dewpoint: 12.0°C ( 54°F) [RH = 60%]
Pressure (altimeter):29.91 inches Hg (1013.0 mb)
Winds:calm
Visibility:10 or more sm (16+ km)
Ceiling:at least 12,000 feet AGL
Clouds:sky clear below 12,000 feet AGL
QC Flag:automated observation with no human augmentation
Text:K6B9 201555Z AUTO 00000KT 10SM CLR 21/11 A2992 RMK AO2
Temperature: 21.0°C ( 70°F)
Dewpoint: 11.0°C ( 52°F) [RH = 53%]
Pressure (altimeter):29.92 inches Hg (1013.3 mb)
Winds:calm
Visibility:10 or more sm (16+ km)
Ceiling:at least 12,000 feet AGL
Clouds:sky clear below 12,000 feet AGL
QC Flag:automated observation with no human augmentation
Text:K6B9 201535Z AUTO 00000KT 10SM CLR 20/12 A2991 RMK AO2
Temperature: 20.0°C ( 68°F)
Dewpoint: 12.0°C ( 54°F) [RH = 60%]
Pressure (altimeter):29.91 inches Hg (1013.0 mb)
Winds:calm
Visibility:10 or more sm (16+ km)
Ceiling:at least 12,000 feet AGL
Clouds:sky clear below 12,000 feet AGL
QC Flag:automated observation with no human augmentation
Text:K6B9 201515Z AUTO 09004KT 10SM CLR 20/10 A2990 RMK AO2
Temperature: 20.0°C ( 68°F)
Dewpoint: 10.0°C ( 50°F) [RH = 53%]
Pressure (altimeter):29.90 inches Hg (1012.6 mb)
Winds:from the E (90 degrees) at 5 MPH (4 knots; 2.1 m/s)
Visibility:10 or more sm (16+ km)
Ceiling:at least 12,000 feet AGL
Clouds:sky clear below 12,000 feet AGL
QC Flag:automated observation with no human augmentation